Terminal Aerodrome Forecast
Issued by NWS Cleveland, OH

Home | Current Version | Previous Version | Graphics & Text | Print | Product List | Glossary On
Versions: 1 2 3 4 5 6 7 8 9 10 11 12 13 14 15 16 17 18 19
615
FTUS41 KCLE 090542
TAFYNG
TAF
KYNG 090542Z 0906/1006 24006KT 5SM -SN SCT008 OVC025
      TEMPO 0906/0910 BKN008 OVC015
     FM091000 24005KT P6SM OVC005
     FM091900 26010KT P6SM -SHSN OVC020
     FM092300 26010KT P6SM BKN025=

USA.gov is the U.S. government's official web portal to all federal, state and local government web resources and services.